Time;durP1;ratioP1;P1;durP2;ratioP2;P2;SDS_P1;SDS_P2;PMS_P1;PMS_P2;Temp;Humidity;BMP_temperature;BMP_pressure;BME280_temperature;BME280_humidity;BME280_pressure;Samples;Min_cycle;Max_cycle;Signal;HPM_P1;HPM_P2
2023/01/04 00:00:10;;;;;;;;;;;6.40;99.90;;;;;;4951817;29;1731;-90
2023/01/04 00:02:39;;;;;;;;;;;6.50;99.90;;;;;;4951491;29;1574;-91
2023/01/04 00:05:08;;;;;;;;;;;6.50;99.90;;;;;;4957218;29;1910;-92
2023/01/04 00:07:36;;;;;;;;;;;6.50;99.90;;;;;;4973027;28;1603;-88
2023/01/04 00:10:04;;;;;;;;;;;6.50;99.90;;;;;;4997492;28;1419;-89
2023/01/04 00:12:32;;;;;;;;;;;6.60;99.90;;;;;;5028006;28;1586;-89
2023/01/04 00:15:12;;;;;;;;;;;6.60;99.90;;;;;;5025655;28;1652;-91
2023/01/04 00:17:43;;;;;;;;;;;6.80;99.90;;;;;;5034139;28;1397;-90
2023/01/04 00:20:12;;;;;;;;;;;6.60;99.90;;;;;;5034179;28;1556;-92
2023/01/04 00:26:15;;;;;;;;;;;6.60;99.90;;;;;;5028989;28;1953;-91
2023/01/04 00:29:04;;;;;;;;;;;6.70;99.90;;;;;;5037506;28;1758;-92
2023/01/04 00:31:34;;;;;;;;;;;6.70;99.90;;;;;;5035319;28;1517;-92
2023/01/04 00:34:04;;;;;;;;;;;6.70;99.90;;;;;;5066010;28;1564;-91
2023/01/04 00:36:33;;;;;;;;;;;6.80;99.90;;;;;;5049708;28;1383;-93
2023/01/04 00:39:08;;;;;;;;;;;6.80;99.90;;;;;;5045253;28;1524;-91
2023/01/04 00:41:39;;;;;;;;;;;6.90;99.90;;;;;;5028225;28;1564;-91
2023/01/04 00:44:27;;;;;;;;;;;6.90;99.90;;;;;;5042428;28;1896;-91
2023/01/04 00:46:57;;;;;;;;;;;6.90;99.90;;;;;;5032891;28;1546;-91
2023/01/04 00:49:25;;;;;;;;;;;7.00;99.90;;;;;;5049033;28;1886;-92
2023/01/04 00:51:54;;;;;;;;;;;6.90;99.90;;;;;;5059551;28;1727;-90
2023/01/04 00:54:25;;;;;;;;;;;6.70;99.90;;;;;;5057994;28;1698;-90
2023/01/04 00:56:53;;;;;;;;;;;6.90;99.90;;;;;;5058323;28;1682;-91
2023/01/04 00:59:24;;;;;;;;;;;7.10;99.90;;;;;;5056259;28;1499;-93
2023/01/04 01:01:57;;;;;;;;;;;6.90;99.90;;;;;;5056417;28;1682;-92
2023/01/04 01:04:25;;;;;;;;;;;7.10;99.90;;;;;;5055810;28;1952;-93
2023/01/04 01:06:56;;;;;;;;;;;6.90;99.90;;;;;;5051875;28;1559;-92
2023/01/04 01:09:26;;;;;;;;;;;6.90;99.90;;;;;;5035117;28;1753;-90
2023/01/04 01:14:50;;;;;;;;;;;7.00;99.90;;;;;;5057800;28;1449;-91
2023/01/04 01:17:33;;;;;;;;;;;7.10;99.90;;;;;;4975968;28;1527;-89
2023/01/04 01:20:05;;;;;;;;;;;7.30;99.90;;;;;;4962956;29;1553;-91
2023/01/04 01:22:35;;;;;;;;;;;7.20;99.90;;;;;;4951124;29;1737;-91
2023/01/04 01:25:03;;;;;;;;;;;7.20;99.90;;;;;;4959736;29;1891;-91
2023/01/04 01:27:32;;;;;;;;;;;7.20;99.90;;;;;;4955212;29;1501;-92
2023/01/04 01:30:00;;;;;;;;;;;7.50;99.90;;;;;;4950103;29;1685;-90
2023/01/04 01:32:28;;;;;;;;;;;7.30;99.90;;;;;;4963908;29;1742;-90
2023/01/04 01:34:58;;;;;;;;;;;7.30;99.90;;;;;;4954253;29;1700;-89
2023/01/04 01:37:26;;;;;;;;;;;7.10;99.90;;;;;;4957292;28;1509;-88
2023/01/04 01:39:54;;;;;;;;;;;7.40;99.90;;;;;;4962799;29;1535;-89
2023/01/04 01:42:22;;;;;;;;;;;7.40;99.90;;;;;;5015819;28;1600;-90
2023/01/04 01:45:00;;;;;;;;;;;7.60;99.90;;;;;;5053415;28;1993;-90
2023/01/04 01:47:35;;;;;;;;;;;7.40;99.90;;;;;;5050277;28;1740;-91
2023/01/04 01:50:15;;;;;;;;;;;7.40;99.90;;;;;;5049167;28;1569;-90
2023/01/04 01:55:52;;;;;;;;;;;7.50;99.90;;;;;;5033562;28;1448;-90
2023/01/04 01:58:23;;;;;;;;;;;7.50;99.90;;;;;;5051382;28;1568;-90
2023/01/04 02:00:51;;;;;;;;;;;7.70;99.90;;;;;;5041925;28;1618;-91
2023/01/04 02:03:22;;;;;;;;;;;7.60;99.90;;;;;;5034655;28;1513;-90
2023/01/04 02:05:53;;;;;;;;;;;7.60;99.90;;;;;;5033427;28;1883;-91
2023/01/04 02:08:23;;;;;;;;;;;7.80;99.90;;;;;;5024806;28;1675;-91
2023/01/04 02:10:52;;;;;;;;;;;7.60;99.90;;;;;;5024330;28;1533;-91
2023/01/04 02:13:22;;;;;;;;;;;7.60;99.90;;;;;;5037781;28;1649;-91
2023/01/04 02:15:58;;;;;;;;;;;7.60;99.90;;;;;;5031786;28;1518;-91
2023/01/04 02:18:29;;;;;;;;;;;7.60;99.90;;;;;;5043894;28;1471;-90
2023/01/04 02:21:00;;;;;;;;;;;7.80;99.90;;;;;;5039860;28;1635;-90
2023/01/04 02:23:35;;;;;;;;;;;7.60;99.90;;;;;;5027937;28;1578;-89
2023/01/04 02:26:27;;;;;;;;;;;7.90;99.90;;;;;;5026494;28;1891;-91
2023/01/04 02:29:06;;;;;;;;;;;7.80;99.90;;;;;;5034569;28;1670;-90
2023/01/04 02:31:39;;;;;;;;;;;7.70;99.90;;;;;;5043642;28;1633;-91
2023/01/04 02:34:10;;;;;;;;;;;7.60;99.90;;;;;;5045665;28;1575;-91
2023/01/04 02:36:42;;;;;;;;;;;7.70;99.90;;;;;;5028994;28;1748;-91
2023/01/04 02:39:18;;;;;;;;;;;7.80;99.90;;;;;;5030419;28;1619;-91
2023/01/04 02:41:50;;;;;;;;;;;7.80;99.90;;;;;;5040445;28;1570;-86
2023/01/04 02:47:08;;;;;;;;;;;7.80;99.90;;;;;;5045435;28;1961;-92
2023/01/04 02:52:31;;;;;;;;;;;7.80;99.90;;;;;;5040533;28;1506;-89
2023/01/04 02:54:59;;;;;;;;;;;7.80;99.90;;;;;;5036720;28;1574;-88
2023/01/04 02:57:38;;;;;;;;;;;7.80;99.90;;;;;;5023466;28;1307;-90
2023/01/04 03:00:21;;;;;;;;;;;7.90;99.90;;;;;;5030453;28;1572;-92
2023/01/04 03:06:17;;;;;;;;;;;7.90;99.90;;;;;;4988732;28;1999;-89
2023/01/04 03:08:51;;;;;;;;;;;8.00;99.90;;;;;;5020217;28;1691;-91
2023/01/04 03:14:09;;;;;;;;;;;7.90;99.90;;;;;;5040642;28;1534;-92
2023/01/04 03:16:59;;;;;;;;;;;7.90;99.90;;;;;;5038225;28;1735;-92
2023/01/04 03:19:53;;;;;;;;;;;7.90;99.90;;;;;;5034142;28;1600;-93
2023/01/04 03:36:46;;;;;;;;;;;7.90;99.90;;;;;;4959868;29;1717;-92
2023/01/04 03:50:42;;;;;;;;;;;7.80;99.90;;;;;;5042589;28;1457;-90
2023/01/04 03:53:13;;;;;;;;;;;7.80;99.90;;;;;;5054790;28;1725;-89
2023/01/04 03:55:42;;;;;;;;;;;7.70;99.90;;;;;;5052917;28;1571;-89
2023/01/04 03:58:10;;;;;;;;;;;7.70;99.90;;;;;;5041759;28;1544;-90
2023/01/04 04:00:38;;;;;;;;;;;7.70;99.90;;;;;;5026148;28;1556;-91
2023/01/04 04:03:07;;;;;;;;;;;7.50;99.90;;;;;;5032405;28;1600;-90
2023/01/04 04:08:25;;;;;;;;;;;7.60;99.90;;;;;;5030263;28;1673;-91
2023/01/04 04:10:54;;;;;;;;;;;7.50;99.90;;;;;;5045392;28;1636;-91
2023/01/04 04:13:22;;;;;;;;;;;7.40;99.90;;;;;;5037957;28;1673;-90
2023/01/04 04:15:52;;;;;;;;;;;7.40;99.90;;;;;;5039133;28;1755;-89
2023/01/04 04:18:20;;;;;;;;;;;7.40;99.90;;;;;;5030503;28;1560;-91
2023/01/04 04:20:48;;;;;;;;;;;7.40;99.90;;;;;;5024593;28;1540;-90
2023/01/04 04:23:16;;;;;;;;;;;7.30;99.90;;;;;;5025179;28;1772;-90
2023/01/04 04:25:46;;;;;;;;;;;7.30;99.90;;;;;;5041860;28;1982;-89
2023/01/04 04:28:14;;;;;;;;;;;7.30;99.90;;;;;;5044361;28;1701;-89
2023/01/04 04:30:42;;;;;;;;;;;7.30;99.90;;;;;;5041511;28;1569;-90
2023/01/04 04:33:10;;;;;;;;;;;7.40;99.90;;;;;;5045375;28;1687;-90
2023/01/04 04:35:38;;;;;;;;;;;7.30;99.90;;;;;;5029510;28;1520;-90
2023/01/04 04:38:06;;;;;;;;;;;7.30;99.90;;;;;;5040673;28;1644;-90
2023/01/04 04:43:21;;;;;;;;;;;7.50;99.90;;;;;;5029636;28;1516;-92
2023/01/04 04:45:50;;;;;;;;;;;7.10;99.90;;;;;;5027903;28;1891;-89
2023/01/04 04:48:18;;;;;;;;;;;7.20;99.90;;;;;;5030725;28;1753;-91
2023/01/04 04:50:46;;;;;;;;;;;7.30;99.90;;;;;;5043893;28;1670;-89
2023/01/04 04:53:13;;;;;;;;;;;7.10;99.90;;;;;;5047195;28;1368;-91
2023/01/04 04:55:42;;;;;;;;;;;7.10;99.90;;;;;;5046843;28;1819;-90
2023/01/04 04:58:10;;;;;;;;;;;7.10;99.90;;;;;;5051469;28;1722;-90
2023/01/04 05:00:41;;;;;;;;;;;7.10;99.90;;;;;;5042090;28;1589;-89
2023/01/04 05:03:09;;;;;;;;;;;7.00;99.90;;;;;;5048614;28;1533;-88
2023/01/04 05:05:37;;;;;;;;;;;7.00;99.90;;;;;;5053449;28;1576;-90
2023/01/04 05:08:06;;;;;;;;;;;7.10;99.90;;;;;;5042200;28;1919;-90
2023/01/04 05:10:34;;;;;;;;;;;7.20;99.90;;;;;;5039760;28;1692;-91
2023/01/04 05:13:01;;;;;;;;;;;7.20;99.90;;;;;;5056930;28;1521;-91
2023/01/04 05:15:31;;;;;;;;;;;7.30;99.90;;;;;;5058048;28;1524;-90
2023/01/04 05:18:01;;;;;;;;;;;7.20;99.90;;;;;;5060245;28;1408;-90
2023/01/04 05:20:30;;;;;;;;;;;7.10;99.90;;;;;;5062812;28;1586;-89
2023/01/04 05:22:58;;;;;;;;;;;7.10;99.90;;;;;;5059239;28;1619;-89
2023/01/04 05:25:26;;;;;;;;;;;7.30;99.90;;;;;;5048234;28;1648;-89
2023/01/04 05:27:54;;;;;;;;;;;7.30;99.90;;;;;;5038017;28;1899;-90
2023/01/04 05:33:10;;;;;;;;;;;7.10;99.90;;;;;;5043185;28;1697;-90
2023/01/04 05:35:38;;;;;;;;;;;7.10;99.90;;;;;;5057937;28;1689;-90
2023/01/04 05:38:06;;;;;;;;;;;7.10;99.90;;;;;;5057340;28;1600;-89
2023/01/04 05:40:34;;;;;;;;;;;7.20;99.90;;;;;;5058386;28;1682;-90
2023/01/04 05:43:02;;;;;;;;;;;7.20;99.90;;;;;;5054974;28;1753;-90
2023/01/04 05:45:29;;;;;;;;;;;7.40;99.90;;;;;;5059573;28;1552;-89
2023/01/04 05:47:57;;;;;;;;;;;7.30;99.90;;;;;;5060678;28;1891;-91
2023/01/04 05:50:27;;;;;;;;;;;7.30;99.90;;;;;;5054063;28;1528;-89
2023/01/04 05:52:55;;;;;;;;;;;7.30;99.90;;;;;;5049552;28;1741;-90
2023/01/04 05:55:23;;;;;;;;;;;7.40;99.90;;;;;;5039676;28;1512;-90
2023/01/04 05:57:52;;;;;;;;;;;7.60;99.90;;;;;;5053715;28;1532;-89
2023/01/04 06:00:20;;;;;;;;;;;7.40;99.90;;;;;;5058778;28;1550;-89
2023/01/04 06:02:48;;;;;;;;;;;7.60;99.90;;;;;;5053558;28;1719;-86
2023/01/04 06:05:16;;;;;;;;;;;7.50;99.90;;;;;;5038668;28;1119;-86
2023/01/04 06:07:45;;;;;;;;;;;7.80;99.90;;;;;;5028051;28;1883;-86
2023/01/04 06:10:14;;;;;;;;;;;7.70;99.90;;;;;;5034007;28;1080;-88
2023/01/04 06:12:42;;;;;;;;;;;7.70;99.90;;;;;;5049344;28;1540;-88
2023/01/04 06:15:11;;;;;;;;;;;7.60;99.90;;;;;;5035947;28;1536;-88
2023/01/04 06:17:39;;;;;;;;;;;7.70;99.90;;;;;;5040700;28;1565;-90
2023/01/04 06:20:08;;;;;;;;;;;7.80;99.90;;;;;;5057551;28;1673;-89
2023/01/04 06:22:36;;;;;;;;;;;7.80;99.90;;;;;;5035502;28;1068;-86
2023/01/04 06:25:06;;;;;;;;;;;7.80;99.90;;;;;;5044601;28;1317;-87
2023/01/04 06:27:34;;;;;;;;;;;8.00;99.90;;;;;;5051461;28;1910;-88
2023/01/04 06:30:02;;;;;;;;;;;7.90;99.90;;;;;;5037124;28;1041;-88
2023/01/04 06:32:30;;;;;;;;;;;8.00;99.90;;;;;;5043735;28;1528;-87
2023/01/04 06:34:58;;;;;;;;;;;8.00;99.90;;;;;;5040589;28;1828;-86
2023/01/04 06:37:26;;;;;;;;;;;8.10;99.90;;;;;;5033335;28;1611;-88
2023/01/04 06:39:53;;;;;;;;;;;8.10;99.90;;;;;;5043661;28;1604;-86
2023/01/04 06:45:08;;;;;;;;;;;8.20;99.90;;;;;;5049199;28;1567;-87
2023/01/04 06:47:36;;;;;;;;;;;8.20;99.90;;;;;;5038984;28;1989;-86
2023/01/04 06:50:04;;;;;;;;;;;8.30;99.90;;;;;;5034250;28;1252;-86
2023/01/04 06:52:32;;;;;;;;;;;8.30;99.90;;;;;;5037223;28;1041;-86
2023/01/04 06:55:00;;;;;;;;;;;8.40;99.90;;;;;;5048419;28;1668;-86
2023/01/04 06:57:29;;;;;;;;;;;8.40;99.90;;;;;;5037769;28;1281;-86
2023/01/04 06:59:57;;;;;;;;;;;8.50;99.90;;;;;;5040503;28;2108;-86
2023/01/04 07:02:25;;;;;;;;;;;8.40;99.90;;;;;;5035899;28;1884;-88
2023/01/04 07:04:53;;;;;;;;;;;8.50;99.90;;;;;;5040700;28;1998;-89
2023/01/04 07:07:21;;;;;;;;;;;8.60;99.90;;;;;;5034852;28;1972;-87
2023/01/04 07:09:49;;;;;;;;;;;8.40;99.90;;;;;;5036850;28;1411;-88
2023/01/04 07:12:17;;;;;;;;;;;8.40;99.90;;;;;;5031281;28;1443;-88
2023/01/04 07:14:46;;;;;;;;;;;8.30;99.90;;;;;;5034717;28;1588;-88
2023/01/04 07:17:14;;;;;;;;;;;8.40;99.90;;;;;;5036427;28;1564;-88
2023/01/04 07:19:42;;;;;;;;;;;8.40;99.90;;;;;;5070418;23;3728;-84
2023/01/04 07:22:12;;;;;;;;;;;8.40;99.90;;;;;;5059736;28;2007;-83
2023/01/04 07:24:40;;;;;;;;;;;8.40;99.90;;;;;;5059638;28;2095;-83
2023/01/04 07:27:09;;;;;;;;;;;8.50;99.90;;;;;;5063597;28;992;-82
2023/01/04 07:29:36;;;;;;;;;;;8.50;99.90;;;;;;5060596;28;1879;-83
2023/01/04 07:32:05;;;;;;;;;;;8.50;99.90;;;;;;5060792;28;985;-82
2023/01/04 07:34:41;;;;;;;;;;;8.50;99.90;;;;;;5061592;28;1354;-84
2023/01/04 07:37:09;;;;;;;;;;;8.60;99.90;;;;;;5061625;28;1935;-82
2023/01/04 07:39:39;;;;;;;;;;;8.60;99.90;;;;;;5063519;28;1028;-82
2023/01/04 07:42:07;;;;;;;;;;;8.70;99.90;;;;;;5065542;28;1069;-81
2023/01/04 07:44:35;;;;;;;;;;;8.70;99.90;;;;;;5064538;28;1868;-81
2023/01/04 07:47:03;;;;;;;;;;;8.70;99.90;;;;;;5065101;28;1876;-81
2023/01/04 07:49:32;;;;;;;;;;;8.70;99.90;;;;;;5077040;28;1975;-81
2023/01/04 07:52:00;;;;;;;;;;;8.80;99.90;;;;;;5057479;28;1488;-74
2023/01/04 07:54:27;;;;;;;;;;;8.80;99.90;;;;;;5053794;28;1734;-75
2023/01/04 07:56:55;;;;;;;;;;;8.90;99.90;;;;;;5057856;28;2086;-76
2023/01/04 07:59:23;;;;;;;;;;;8.90;99.90;;;;;;5066245;28;1039;-77
2023/01/04 08:01:51;;;;;;;;;;;8.90;99.90;;;;;;5068052;28;1660;-76
2023/01/04 08:04:21;;;;;;;;;;;8.90;99.90;;;;;;5059120;28;1381;-76
2023/01/04 08:06:52;;;;;;;;;;;9.00;99.90;;;;;;5055146;28;1005;-73
2023/01/04 08:09:19;;;;;;;;;;;9.00;99.90;;;;;;5054486;28;1910;-75
2023/01/04 08:11:48;;;;;;;;;;;9.00;99.90;;;;;;5052176;28;992;-75
2023/01/04 08:14:16;;;;;;;;;;;9.10;99.90;;;;;;5053082;28;1352;-75
2023/01/04 08:16:44;;;;;;;;;;;9.10;99.90;;;;;;5053199;28;1463;-75
2023/01/04 08:19:12;;;;;;;;;;;9.20;99.90;;;;;;5052826;28;1945;-76
2023/01/04 08:21:40;;;;;;;;;;;9.10;99.90;;;;;;5053463;28;993;-76
2023/01/04 08:24:09;;;;;;;;;;;9.20;99.90;;;;;;5053393;28;1305;-75
2023/01/04 08:26:37;;;;;;;;;;;9.20;99.90;;;;;;5052803;28;1656;-77
2023/01/04 08:29:04;;;;;;;;;;;9.20;99.90;;;;;;5053751;28;1983;-75
2023/01/04 08:31:33;;;;;;;;;;;9.20;99.90;;;;;;5052727;28;1869;-75
2023/01/04 08:34:02;;;;;;;;;;;9.30;99.90;;;;;;5057817;28;1940;-76
2023/01/04 08:36:31;;;;;;;;;;;9.40;99.90;;;;;;5054060;28;1064;-75
2023/01/04 08:38:59;;;;;;;;;;;9.40;99.90;;;;;;5053187;28;1064;-74
2023/01/04 08:41:31;;;;;;;;;;;9.30;99.90;;;;;;5052715;28;1339;-74
2023/01/04 08:44:20;;;;;;;;;;;9.40;99.90;;;;;;5053499;28;1552;-75
2023/01/04 08:46:47;;;;;;;;;;;9.40;99.90;;;;;;5053276;28;1035;-75
2023/01/04 08:49:15;;;;;;;;;;;9.40;99.90;;;;;;5053100;28;1979;-75
2023/01/04 08:51:43;;;;;;;;;;;9.40;99.90;;;;;;5053715;28;1077;-75
2023/01/04 08:54:11;;;;;;;;;;;9.50;99.90;;;;;;5053442;28;2086;-76
2023/01/04 08:56:40;;;;;;;;;;;9.50;99.90;;;;;;5054449;28;1100;-76
2023/01/04 08:59:09;;;;;;;;;;;9.50;99.90;;;;;;5053864;28;1447;-76
2023/01/04 09:01:37;;;;;;;;;;;9.60;99.90;;;;;;5053322;28;1567;-76
2023/01/04 09:04:38;;;;;;;;;;;9.60;99.90;;;;;;5053445;28;1382;-76
2023/01/04 09:07:07;;;;;;;;;;;9.70;99.90;;;;;;5053185;28;1897;-76
2023/01/04 09:09:35;;;;;;;;;;;9.70;99.90;;;;;;5053636;28;2094;-75
2023/01/04 09:12:04;;;;;;;;;;;9.70;99.90;;;;;;5053406;28;1543;-76
2023/01/04 09:14:32;;;;;;;;;;;9.80;99.90;;;;;;5053637;28;1569;-75
2023/01/04 09:16:59;;;;;;;;;;;9.80;99.90;;;;;;5054160;28;1005;-77
2023/01/04 09:19:27;;;;;;;;;;;9.90;99.90;;;;;;5053782;28;1147;-75
2023/01/04 09:21:55;;;;;;;;;;;9.80;99.90;;;;;;5053848;28;1089;-75
2023/01/04 09:24:22;;;;;;;;;;;9.90;99.90;;;;;;5054406;28;1284;-76
2023/01/04 09:26:50;;;;;;;;;;;9.90;99.90;;;;;;5053055;28;1005;-76
2023/01/04 09:29:19;;;;;;;;;;;9.90;99.90;;;;;;5053010;28;2004;-76
2023/01/04 09:31:47;;;;;;;;;;;9.90;99.90;;;;;;5052958;28;985;-76
2023/01/04 09:34:14;;;;;;;;;;;9.90;99.90;;;;;;5052057;28;1298;-75
2023/01/04 09:36:44;;;;;;;;;;;9.90;99.90;;;;;;5052803;28;1113;-76
2023/01/04 09:39:12;;;;;;;;;;;10.00;99.90;;;;;;5051976;28;1554;-77
2023/01/04 09:41:52;;;;;;;;;;;10.00;99.90;;;;;;5051922;28;2003;-75
2023/01/04 09:44:26;;;;;;;;;;;10.00;99.90;;;;;;5056401;28;1558;-75
2023/01/04 09:47:15;;;;;;;;;;;10.10;99.90;;;;;;5057085;28;1585;-74
2023/01/04 09:49:45;;;;;;;;;;;10.10;99.90;;;;;;5057042;28;1914;-77
2023/01/04 09:52:15;;;;;;;;;;;10.10;99.90;;;;;;5054564;28;1587;-76
2023/01/04 09:54:44;;;;;;;;;;;10.10;99.90;;;;;;5055931;28;1515;-75
2023/01/04 09:57:17;;;;;;;;;;;10.10;99.90;;;;;;5054722;28;1112;-75
2023/01/04 09:59:47;;;;;;;;;;;10.30;99.90;;;;;;5055479;28;1200;-75
2023/01/04 10:02:17;;;;;;;;;;;10.20;99.90;;;;;;5053638;28;1531;-75
2023/01/04 10:04:46;;;;;;;;;;;10.20;99.90;;;;;;5054628;28;1468;-75
2023/01/04 10:07:17;;;;;;;;;;;10.30;99.90;;;;;;5055184;28;998;-74
2023/01/04 10:09:44;;;;;;;;;;;10.30;99.90;;;;;;5054267;28;1906;-76
2023/01/04 10:12:19;;;;;;;;;;;10.30;99.90;;;;;;5059986;28;997;-76
2023/01/04 10:14:52;;;;;;;;;;;10.30;99.90;;;;;;5068506;28;1380;-76
2023/01/04 10:17:31;;;;;;;;;;;10.30;99.90;;;;;;5058219;28;821;-76
2023/01/04 10:20:32;;;;;;;;;;;10.40;99.90;;;;;;5057546;28;1566;-77
2023/01/04 10:23:23;;;;;;;;;;;10.40;99.90;;;;;;5057728;28;1272;-76
2023/01/04 10:25:53;;;;;;;;;;;10.40;99.90;;;;;;5054429;28;1433;-76
2023/01/04 10:28:28;;;;;;;;;;;10.40;99.90;;;;;;5055665;28;1065;-75
2023/01/04 10:31:02;;;;;;;;;;;10.40;99.90;;;;;;5056124;28;1985;-75
2023/01/04 10:33:50;;;;;;;;;;;10.40;99.90;;;;;;5053357;28;1677;-76
2023/01/04 10:36:19;;;;;;;;;;;10.50;99.90;;;;;;5055050;28;1670;-76
2023/01/04 10:38:48;;;;;;;;;;;10.50;99.90;;;;;;5055568;28;1666;-76
2023/01/04 10:41:20;;;;;;;;;;;10.50;99.90;;;;;;5054720;28;1720;-74
2023/01/04 10:43:50;;;;;;;;;;;10.50;99.90;;;;;;5054769;28;1777;-76
2023/01/04 10:46:43;;;;;;;;;;;10.50;99.90;;;;;;5054796;28;1794;-76
2023/01/04 10:49:12;;;;;;;;;;;10.60;99.90;;;;;;5055860;28;1910;-75
2023/01/04 10:51:41;;;;;;;;;;;10.50;99.90;;;;;;5055448;28;1162;-74
2023/01/04 10:54:12;;;;;;;;;;;10.50;99.90;;;;;;5054036;28;1515;-76
2023/01/04 10:56:44;;;;;;;;;;;10.60;99.90;;;;;;5055627;28;1675;-75
2023/01/04 10:59:18;;;;;;;;;;;10.50;99.90;;;;;;5055856;28;1091;-75
2023/01/04 11:01:59;;;;;;;;;;;10.60;99.90;;;;;;5055201;28;1060;-76
2023/01/04 11:04:31;;;;;;;;;;;10.70;99.90;;;;;;5054902;28;1401;-76
2023/01/04 11:07:02;;;;;;;;;;;10.60;99.90;;;;;;5055787;28;1005;-75
2023/01/04 11:09:34;;;;;;;;;;;10.70;99.90;;;;;;5053878;28;1963;-75
2023/01/04 11:12:02;;;;;;;;;;;10.70;99.90;;;;;;5053564;28;1450;-76
2023/01/04 11:14:30;;;;;;;;;;;10.70;99.90;;;;;;5055524;28;1368;-78
2023/01/04 11:17:06;;;;;;;;;;;10.70;99.90;;;;;;5054734;28;1357;-74
2023/01/04 11:19:34;;;;;;;;;;;10.90;99.90;;;;;;5054636;28;1043;-75
2023/01/04 11:22:07;;;;;;;;;;;10.90;99.90;;;;;;5054878;28;1068;-74
2023/01/04 11:24:35;;;;;;;;;;;10.90;99.90;;;;;;5054184;28;1558;-73
2023/01/04 11:27:05;;;;;;;;;;;10.90;99.90;;;;;;5056753;28;1005;-74
2023/01/04 11:29:35;;;;;;;;;;;11.00;99.90;;;;;;5056947;28;1999;-74
2023/01/04 11:32:05;;;;;;;;;;;11.00;99.90;;;;;;5055637;28;997;-74
2023/01/04 11:34:49;;;;;;;;;;;11.00;99.90;;;;;;5054444;28;1362;-73
2023/01/04 11:37:27;;;;;;;;;;;11.00;99.90;;;;;;5053728;28;1251;-74
2023/01/04 11:40:11;;;;;;;;;;;11.10;99.90;;;;;;5053339;28;1138;-74
2023/01/04 11:42:38;;;;;;;;;;;11.10;99.90;;;;;;5053255;28;1614;-73
2023/01/04 11:45:07;;;;;;;;;;;11.00;99.90;;;;;;5053405;28;1330;-74
2023/01/04 11:47:34;;;;;;;;;;;11.10;99.90;;;;;;5051879;28;1772;-74
2023/01/04 11:50:03;;;;;;;;;;;11.10;99.90;;;;;;5053145;28;1984;-74
2023/01/04 11:52:32;;;;;;;;;;;11.10;99.90;;;;;;5053884;28;1264;-74
2023/01/04 11:55:14;;;;;;;;;;;11.20;99.90;;;;;;5053049;28;1280;-74
2023/01/04 11:57:42;;;;;;;;;;;11.10;99.90;;;;;;5051037;28;1582;-74
2023/01/04 12:00:14;;;;;;;;;;;11.10;99.90;;;;;;5053678;28;1044;-73
2023/01/04 12:02:41;;;;;;;;;;;11.00;99.90;;;;;;5052303;28;1419;-76
2023/01/04 12:05:30;;;;;;;;;;;10.90;99.90;;;;;;5052991;28;1419;-75
2023/01/04 12:07:58;;;;;;;;;;;11.00;99.90;;;;;;5054816;28;1052;-76
2023/01/04 12:10:27;;;;;;;;;;;11.00;99.90;;;;;;5052207;28;1910;-75
2023/01/04 12:12:56;;;;;;;;;;;11.10;99.90;;;;;;5052746;28;1367;-75
2023/01/04 12:15:27;;;;;;;;;;;11.10;99.90;;;;;;5051586;28;1533;-75
2023/01/04 12:17:57;;;;;;;;;;;11.10;99.90;;;;;;5051949;28;1462;-75
2023/01/04 12:20:27;;;;;;;;;;;11.10;99.90;;;;;;5051567;28;1475;-75
2023/01/04 12:22:56;;;;;;;;;;;11.20;99.90;;;;;;5050514;28;1553;-74
2023/01/04 12:25:28;;;;;;;;;;;11.10;99.90;;;;;;5061982;28;1685;-77
2023/01/04 12:27:57;;;;;;;;;;;11.10;99.90;;;;;;5074044;28;1083;-79
2023/01/04 12:30:45;;;;;;;;;;;11.10;99.90;;;;;;5073581;28;1910;-80
2023/01/04 12:33:35;;;;;;;;;;;11.10;99.90;;;;;;5057581;28;1515;-79
2023/01/04 12:36:03;;;;;;;;;;;11.10;99.90;;;;;;5055314;28;1868;-78
2023/01/04 12:38:50;;;;;;;;;;;11.10;99.90;;;;;;5054073;28;1561;-78
2023/01/04 12:41:19;;;;;;;;;;;11.10;99.90;;;;;;5054224;28;1033;-77
2023/01/04 12:43:48;;;;;;;;;;;11.10;99.90;;;;;;5054736;28;1320;-79
2023/01/04 12:49:44;;;;;;;;;;;11.20;99.90;;;;;;5012361;28;1479;-77
2023/01/04 12:52:30;;;;;;;;;;;11.20;99.90;;;;;;5013036;28;1922;-77
2023/01/04 12:55:25;;;;;;;;;;;11.20;99.90;;;;;;5052447;28;1681;-77
2023/01/04 12:57:54;;;;;;;;;;;11.20;99.90;;;;;;5055951;28;1063;-78
2023/01/04 13:00:22;;;;;;;;;;;11.10;99.90;;;;;;5056700;28;984;-79
2023/01/04 13:03:20;;;;;;;;;;;11.20;99.90;;;;;;5060630;28;1363;-79
2023/01/04 13:05:52;;;;;;;;;;;11.20;99.90;;;;;;5056928;28;1285;-78
2023/01/04 13:08:24;;;;;;;;;;;11.30;99.90;;;;;;5052850;28;1088;-77
2023/01/04 13:10:52;;;;;;;;;;;11.30;99.90;;;;;;5054492;28;1979;-79
2023/01/04 13:13:28;;;;;;;;;;;11.30;99.90;;;;;;5054639;28;1236;-79
2023/01/04 13:16:08;;;;;;;;;;;11.30;99.90;;;;;;5053909;28;1479;-80
2023/01/04 13:18:37;;;;;;;;;;;11.30;99.90;;;;;;5058272;28;1685;-78
2023/01/04 13:21:10;;;;;;;;;;;11.30;99.90;;;;;;5058827;28;1219;-79
2023/01/04 13:23:38;;;;;;;;;;;11.30;99.90;;;;;;5059694;28;1642;-80
2023/01/04 13:26:25;;;;;;;;;;;11.40;99.90;;;;;;5059176;28;1654;-77
2023/01/04 13:29:06;;;;;;;;;;;11.40;99.90;;;;;;5059915;28;1108;-79
2023/01/04 13:31:45;;;;;;;;;;;11.30;99.90;;;;;;5057221;28;1956;-77
2023/01/04 13:34:16;;;;;;;;;;;11.30;99.90;;;;;;5058582;28;1364;-77
2023/01/04 13:36:44;;;;;;;;;;;11.40;99.90;;;;;;5057730;28;1093;-78
2023/01/04 13:39:12;;;;;;;;;;;11.40;99.90;;;;;;5057890;28;1152;-77
2023/01/04 13:41:43;;;;;;;;;;;11.40;99.90;;;;;;5057142;28;1103;-77
2023/01/04 13:44:15;;;;;;;;;;;11.30;99.90;;;;;;5059522;28;1304;-79
2023/01/04 13:46:43;;;;;;;;;;;11.40;99.90;;;;;;5057842;28;1020;-78
2023/01/04 13:49:13;;;;;;;;;;;11.40;99.90;;;;;;5057599;28;1674;-78
2023/01/04 13:51:40;;;;;;;;;;;11.40;99.90;;;;;;5058468;28;1891;-79
2023/01/04 13:54:17;;;;;;;;;;;11.40;99.90;;;;;;5058390;28;1359;-79
2023/01/04 13:56:45;;;;;;;;;;;11.40;99.90;;;;;;5057866;28;1669;-78
2023/01/04 13:59:31;;;;;;;;;;;11.50;99.90;;;;;;5060422;28;1037;-79
2023/01/04 14:01:59;;;;;;;;;;;11.40;99.90;;;;;;5066160;28;1060;-78
2023/01/04 14:04:28;;;;;;;;;;;11.40;99.90;;;;;;5064656;28;1308;-78
2023/01/04 14:06:58;;;;;;;;;;;11.40;99.90;;;;;;5064904;28;1102;-80
2023/01/04 14:09:28;;;;;;;;;;;11.40;99.90;;;;;;5065721;28;1128;-79
2023/01/04 14:12:00;;;;;;;;;;;11.50;99.90;;;;;;5070251;28;2000;-78
2023/01/04 14:14:37;;;;;;;;;;;11.40;99.90;;;;;;5062938;28;1386;-80
2023/01/04 14:17:17;;;;;;;;;;;11.40;99.90;;;;;;5063344;28;1080;-76
2023/01/04 14:19:46;;;;;;;;;;;11.40;99.90;;;;;;5061339;28;1620;-78
2023/01/04 14:22:24;;;;;;;;;;;11.50;99.90;;;;;;5057083;28;1009;-77
2023/01/04 14:24:53;;;;;;;;;;;11.50;99.90;;;;;;5059123;28;1358;-78
2023/01/04 14:27:38;;;;;;;;;;;11.30;99.90;;;;;;5061080;28;1100;-77
2023/01/04 14:30:23;;;;;;;;;;;11.40;99.90;;;;;;5058194;28;1092;-76
2023/01/04 14:32:56;;;;;;;;;;;11.40;99.90;;;;;;5060205;28;1964;-76
2023/01/04 14:35:24;;;;;;;;;;;11.40;99.90;;;;;;5063851;28;1253;-76
2023/01/04 14:37:52;;;;;;;;;;;11.40;99.90;;;;;;5073963;28;1004;-77
2023/01/04 14:40:23;;;;;;;;;;;11.50;99.90;;;;;;5068405;28;1119;-77
2023/01/04 14:42:51;;;;;;;;;;;11.40;99.90;;;;;;5069318;28;1094;-76
2023/01/04 14:45:19;;;;;;;;;;;11.40;99.90;;;;;;5068197;28;1352;-74
2023/01/04 14:47:48;;;;;;;;;;;11.40;99.90;;;;;;5069318;28;1329;-76
2023/01/04 14:50:17;;;;;;;;;;;11.30;99.90;;;;;;5064094;28;1580;-76
2023/01/04 14:52:50;;;;;;;;;;;11.40;99.90;;;;;;5058746;28;1965;-76
2023/01/04 14:55:17;;;;;;;;;;;11.40;99.90;;;;;;5063793;28;1452;-76
2023/01/04 14:57:45;;;;;;;;;;;11.30;99.90;;;;;;5062932;28;1143;-78
2023/01/04 15:00:13;;;;;;;;;;;11.40;99.90;;;;;;5060353;28;1041;-76
2023/01/04 15:02:48;;;;;;;;;;;11.40;99.90;;;;;;5059825;28;1680;-76
2023/01/04 15:05:18;;;;;;;;;;;11.40;99.90;;;;;;5061421;28;1433;-78
2023/01/04 15:07:47;;;;;;;;;;;11.40;99.90;;;;;;5068511;28;1043;-78
2023/01/04 15:10:19;;;;;;;;;;;11.40;99.90;;;;;;5064057;28;1036;-78
2023/01/04 15:12:47;;;;;;;;;;;11.50;99.90;;;;;;5056839;28;1906;-76
2023/01/04 15:15:15;;;;;;;;;;;11.30;99.90;;;;;;5056806;28;1439;-76
2023/01/04 15:17:43;;;;;;;;;;;11.30;99.90;;;;;;5057613;28;1352;-76
2023/01/04 15:20:13;;;;;;;;;;;11.30;99.90;;;;;;5060178;28;1636;-77
2023/01/04 15:22:40;;;;;;;;;;;11.20;99.90;;;;;;5058727;28;1020;-77
2023/01/04 15:25:09;;;;;;;;;;;11.10;99.90;;;;;;5058030;28;1408;-77
2023/01/04 15:27:37;;;;;;;;;;;11.10;99.90;;;;;;5056370;28;1021;-77
2023/01/04 15:30:10;;;;;;;;;;;11.20;99.90;;;;;;5056563;28;1616;-76
2023/01/04 15:32:37;;;;;;;;;;;11.20;99.90;;;;;;5055750;28;1917;-77
2023/01/04 15:35:05;;;;;;;;;;;11.30;99.90;;;;;;5059128;28;1278;-77
2023/01/04 15:37:35;;;;;;;;;;;11.20;99.90;;;;;;5055704;28;1043;-76
2023/01/04 15:40:02;;;;;;;;;;;11.20;99.90;;;;;;5059541;28;1124;-76
2023/01/04 15:45:16;;;;;;;;;;;11.30;99.90;;;;;;5057371;28;1388;-76
2023/01/04 15:47:44;;;;;;;;;;;11.30;99.90;;;;;;5057564;28;1028;-76
2023/01/04 15:50:11;;;;;;;;;;;11.40;99.90;;;;;;5057271;28;1327;-78
2023/01/04 15:52:40;;;;;;;;;;;11.30;99.90;;;;;;5058312;28;1989;-77
2023/01/04 15:55:08;;;;;;;;;;;11.40;99.90;;;;;;5056466;28;1391;-76
2023/01/04 15:57:35;;;;;;;;;;;11.40;99.90;;;;;;5054584;28;1119;-75
2023/01/04 16:00:10;;;;;;;;;;;11.40;99.90;;;;;;5058034;28;1064;-78
2023/01/04 16:02:39;;;;;;;;;;;11.60;99.90;;;;;;5061564;28;1185;-76
2023/01/04 16:05:08;;;;;;;;;;;11.50;99.90;;;;;;5059460;28;1453;-77